Aviation Digital Data Service (ADDS)

Output produced by METARs form (0842 UTC 13 February 2016)
found at http://aviationweather.gov/adds/metars/
 
KJAX 130525Z 1306/1406 26010KT P6SM SKC 
     FM130900 32008KT P6SM SKC 
     FM131500 34012G20KT P6SM SKC 
     FM132100 35010KT P6SM SKC 
     FM140000 VRB03KT P6SM SKC